sensor_id;sensor_type;location;lat;lon;timestamp;pressure;altitude;pressure_sealevel;temperature;humidity
3150;BME280;32503;47.748;8.960;2022-08-19T00:00:39;96489.31;;;21.18;74.83
3150;BME280;32503;47.748;8.960;2022-08-19T00:03:06;96485.78;;;21.18;74.90
3150;BME280;32503;47.748;8.960;2022-08-19T00:05:34;96491.72;;;21.16;74.96
3150;BME280;32503;47.748;8.960;2022-08-19T00:08:02;96488.66;;;21.14;74.97
3150;BME280;32503;47.748;8.960;2022-08-19T00:10:29;96490.16;;;21.15;74.98
3150;BME280;32503;47.748;8.960;2022-08-19T00:12:58;96502.72;;;21.16;75.06
3150;BME280;32503;47.748;8.960;2022-08-19T00:15:25;96505.81;;;21.18;74.91
3150;BME280;32503;47.748;8.960;2022-08-19T00:17:54;96502.72;;;21.16;74.79
3150;BME280;32503;47.748;8.960;2022-08-19T00:20:21;96499.53;;;21.18;74.69
3150;BME280;32503;47.748;8.960;2022-08-19T00:22:49;96503.72;;;21.23;74.50
3150;BME280;32503;47.748;8.960;2022-08-19T00:25:16;96497.38;;;21.26;74.25
3150;BME280;32503;47.748;8.960;2022-08-19T00:27:43;96498.56;;;21.25;74.52
3150;BME280;32503;47.748;8.960;2022-08-19T00:30:13;96496.16;;;21.27;74.25
3150;BME280;32503;47.748;8.960;2022-08-19T00:32:40;96495.28;;;21.30;74.18
3150;BME280;32503;47.748;8.960;2022-08-19T00:35:08;96507.81;;;21.31;74.25
3150;BME280;32503;47.748;8.960;2022-08-19T00:37:36;96507.81;;;21.31;74.24
3150;BME280;32503;47.748;8.960;2022-08-19T00:40:06;96508.59;;;21.31;74.33
3150;BME280;32503;47.748;8.960;2022-08-19T00:42:33;96496.84;;;21.31;74.34
3150;BME280;32503;47.748;8.960;2022-08-19T00:45:01;96500.00;;;21.29;74.54
3150;BME280;32503;47.748;8.960;2022-08-19T00:47:31;96495.28;;;21.30;74.59
3150;BME280;32503;47.748;8.960;2022-08-19T00:49:59;96503.19;;;21.28;74.52
3150;BME280;32503;47.748;8.960;2022-08-19T00:52:28;96511.09;;;21.26;74.34
3150;BME280;32503;47.748;8.960;2022-08-19T00:54:57;96510.34;;;21.25;74.42
3150;BME280;32503;47.748;8.960;2022-08-19T00:57:30;96510.69;;;21.27;74.28
3150;BME280;32503;47.748;8.960;2022-08-19T01:00:01;96511.09;;;21.26;74.34
3150;BME280;32503;47.748;8.960;2022-08-19T01:02:32;96511.44;;;21.28;74.23
3150;BME280;32503;47.748;8.960;2022-08-19T01:05:03;96501.56;;;21.30;74.19
3150;BME280;32503;47.748;8.960;2022-08-19T01:07:31;96504.75;;;21.29;74.09
3150;BME280;32503;47.748;8.960;2022-08-19T01:09:59;96497.56;;;21.18;74.01
3150;BME280;32503;47.748;8.960;2022-08-19T01:12:27;96510.34;;;21.25;74.11
3150;BME280;32503;47.748;8.960;2022-08-19T01:14:55;96506.28;;;21.30;74.06
3150;BME280;32503;47.748;8.960;2022-08-19T01:17:22;96498.38;;;21.32;73.93
3150;BME280;32503;47.748;8.960;2022-08-19T01:19:51;96489.78;;;21.30;73.74
3150;BME280;32503;47.748;8.960;2022-08-19T01:22:27;96489.34;;;21.31;73.88
3150;BME280;32503;47.748;8.960;2022-08-19T01:24:57;96491.34;;;21.31;73.70
3150;BME280;32503;47.748;8.960;2022-08-19T01:27:24;96475.69;;;21.28;73.98
3150;BME280;32503;47.748;8.960;2022-08-19T01:29:51;96489.44;;;21.28;73.83
3150;BME280;32503;47.748;8.960;2022-08-19T01:32:18;96488.34;;;21.25;74.08
3150;BME280;32503;47.748;8.960;2022-08-19T01:34:46;96485.59;;;21.25;74.08
3150;BME280;32503;47.748;8.960;2022-08-19T01:37:14;96482.06;;;21.25;73.84
3150;BME280;32503;47.748;8.960;2022-08-19T01:39:44;96490.31;;;21.25;73.71
3150;BME280;32503;47.748;8.960;2022-08-19T01:42:11;96486.22;;;21.16;73.74
3150;BME280;32503;47.748;8.960;2022-08-19T01:44:39;96489.75;;;21.17;74.03
3150;BME280;32503;47.748;8.960;2022-08-19T01:47:08;96486.91;;;21.20;74.11
3150;BME280;32503;47.748;8.960;2022-08-19T01:49:36;96495.81;;;21.25;73.83
3150;BME280;32503;47.748;8.960;2022-08-19T01:52:05;96492.28;;;21.24;73.85
3150;BME280;32503;47.748;8.960;2022-08-19T01:54:33;96485.69;;;21.21;73.94
3150;BME280;32503;47.748;8.960;2022-08-19T01:57:05;96486.91;;;21.20;74.07
3150;BME280;32503;47.748;8.960;2022-08-19T01:59:34;96475.34;;;21.13;74.05
3150;BME280;32503;47.748;8.960;2022-08-19T02:02:02;96474.72;;;21.21;74.06
3150;BME280;32503;47.748;8.960;2022-08-19T02:04:31;96470.41;;;21.20;74.04
3150;BME280;32503;47.748;8.960;2022-08-19T02:06:59;96478.22;;;21.22;74.07
3150;BME280;32503;47.748;8.960;2022-08-19T02:09:26;96475.56;;;21.18;73.96
3150;BME280;32503;47.748;8.960;2022-08-19T02:11:53;96473.00;;;21.11;74.43
3150;BME280;32503;47.748;8.960;2022-08-19T02:14:22;96472.34;;;21.07;74.50
3150;BME280;32503;47.748;8.960;2022-08-19T02:16:49;96468.38;;;21.08;74.33
3150;BME280;32503;47.748;8.960;2022-08-19T02:19:16;96472.25;;;21.11;74.21
3150;BME280;32503;47.748;8.960;2022-08-19T02:21:43;96464.00;;;21.11;74.06
3150;BME280;32503;47.748;8.960;2022-08-19T02:24:10;96461.25;;;21.11;74.13
3150;BME280;32503;47.748;8.960;2022-08-19T02:26:38;96475.22;;;21.16;74.19
3150;BME280;32503;47.748;8.960;2022-08-19T02:29:05;96461.34;;;21.07;74.25
3150;BME280;32503;47.748;8.960;2022-08-19T02:31:34;96470.16;;;21.15;74.36
3150;BME280;32503;47.748;8.960;2022-08-19T02:34:01;96469.13;;;21.09;74.55
3150;BME280;32503;47.748;8.960;2022-08-19T02:36:28;96462.88;;;21.08;74.80
3150;BME280;32503;47.748;8.960;2022-08-19T02:38:56;96472.69;;;21.09;75.00
3150;BME280;32503;47.748;8.960;2022-08-19T02:41:25;96480.22;;;21.05;75.13
3150;BME280;32503;47.748;8.960;2022-08-19T02:43:52;96482.63;;;21.03;75.19
3150;BME280;32503;47.748;8.960;2022-08-19T02:46:23;96481.03;;;21.06;75.06
3150;BME280;32503;47.748;8.960;2022-08-19T02:48:54;96483.34;;;21.07;75.05
3150;BME280;32503;47.748;8.960;2022-08-19T02:51:27;96483.44;;;21.04;75.15
3150;BME280;32503;47.748;8.960;2022-08-19T02:53:55;96488.13;;;21.03;75.03
3150;BME280;32503;47.748;8.960;2022-08-19T02:56:23;96491.69;;;21.04;75.28
3150;BME280;32503;47.748;8.960;2022-08-19T02:58:50;96488.13;;;21.03;75.45
3150;BME280;32503;47.748;8.960;2022-08-19T03:01:22;96490.88;;;21.03;75.44
3150;BME280;32503;47.748;8.960;2022-08-19T03:03:51;96486.59;;;21.02;75.31
3150;BME280;32503;47.748;8.960;2022-08-19T03:06:19;96482.63;;;21.03;75.26
3150;BME280;32503;47.748;8.960;2022-08-19T03:08:48;96475.72;;;20.98;75.29
3150;BME280;32503;47.748;8.960;2022-08-19T03:11:18;96474.50;;;20.99;75.50
3150;BME280;32503;47.748;8.960;2022-08-19T03:13:47;96477.00;;;20.94;75.71
3150;BME280;32503;47.748;8.960;2022-08-19T03:16:15;96480.94;;;20.93;75.92
3150;BME280;32503;47.748;8.960;2022-08-19T03:18:42;96487.66;;;20.92;75.82
3150;BME280;32503;47.748;8.960;2022-08-19T03:21:16;96480.06;;;20.96;75.63
3150;BME280;32503;47.748;8.960;2022-08-19T03:23:43;96475.00;;;20.94;75.49
3150;BME280;32503;47.748;8.960;2022-08-19T03:26:10;96481.31;;;20.95;75.65
3150;BME280;32503;47.748;8.960;2022-08-19T03:28:38;96479.75;;;20.94;75.78
3150;BME280;32503;47.748;8.960;2022-08-19T03:31:09;96487.97;;;20.94;75.84
3150;BME280;32503;47.748;8.960;2022-08-19T03:33:37;96491.41;;;20.98;75.63
3150;BME280;32503;47.748;8.960;2022-08-19T03:36:08;96491.41;;;20.98;75.46
3150;BME280;32503;47.748;8.960;2022-08-19T03:38:38;96485.91;;;20.98;75.76
3150;BME280;32503;47.748;8.960;2022-08-19T03:41:09;96486.34;;;20.96;75.67
3150;BME280;32503;47.748;8.960;2022-08-19T03:43:39;96480.41;;;20.98;75.42
3150;BME280;32503;47.748;8.960;2022-08-19T03:46:08;96488.22;;;20.99;75.54
3150;BME280;32503;47.748;8.960;2022-08-19T03:48:37;96492.63;;;20.97;75.69
3150;BME280;32503;47.748;8.960;2022-08-19T03:51:06;96491.94;;;20.93;75.90
3150;BME280;32503;47.748;8.960;2022-08-19T03:53:35;96476.31;;;20.90;75.83
3150;BME280;32503;47.748;8.960;2022-08-19T03:56:03;96483.16;;;20.98;75.83
3150;BME280;32503;47.748;8.960;2022-08-19T03:58:31;96483.16;;;20.98;75.53
3150;BME280;32503;47.748;8.960;2022-08-19T04:00:58;96478.78;;;21.00;75.37
3150;BME280;32503;47.748;8.960;2022-08-19T04:03:25;96474.81;;;21.01;75.33
3150;BME280;32503;47.748;8.960;2022-08-19T04:05:53;96463.06;;;21.01;75.37
3150;BME280;32503;47.748;8.960;2022-08-19T04:08:21;96459.56;;;21.00;75.54
3150;BME280;32503;47.748;8.960;2022-08-19T04:10:48;96463.59;;;20.96;75.80
3150;BME280;32503;47.748;8.960;2022-08-19T04:13:18;96469.50;;;20.94;75.90
3150;BME280;32503;47.748;8.960;2022-08-19T04:15:46;96461.38;;;20.91;75.98
3150;BME280;32503;47.748;8.960;2022-08-19T04:18:13;96463.44;;;20.87;76.17
3150;BME280;32503;47.748;8.960;2022-08-19T04:20:46;96462.41;;;20.80;76.48
3150;BME280;32503;47.748;8.960;2022-08-19T04:23:14;96466.03;;;20.77;76.65
3150;BME280;32503;47.748;8.960;2022-08-19T04:25:43;96452.75;;;20.76;76.64
3150;BME280;32503;47.748;8.960;2022-08-19T04:28:12;96457.44;;;20.75;76.61
3150;BME280;32503;47.748;8.960;2022-08-19T04:30:44;96470.84;;;20.73;76.95
3150;BME280;32503;47.748;8.960;2022-08-19T04:33:13;96462.25;;;20.71;76.83
3150;BME280;32503;47.748;8.960;2022-08-19T04:35:43;96465.34;;;20.73;76.73
3150;BME280;32503;47.748;8.960;2022-08-19T04:38:11;96476.66;;;20.75;76.82
3150;BME280;32503;47.748;8.960;2022-08-19T04:40:41;96481.72;;;20.77;76.75
3150;BME280;32503;47.748;8.960;2022-08-19T04:43:26;96480.13;;;20.79;76.50
3150;BME280;32503;47.748;8.960;2022-08-19T04:45:55;96488.69;;;20.81;76.57
3150;BME280;32503;47.748;8.960;2022-08-19T04:48:22;96491.78;;;20.83;76.39
3150;BME280;32503;47.748;8.960;2022-08-19T04:50:53;96498.41;;;20.86;76.20
3150;BME280;32503;47.748;8.960;2022-08-19T04:53:24;96506.53;;;20.90;76.22
3150;BME280;32503;47.748;8.960;2022-08-19T04:55:54;96506.53;;;20.90;76.24
3150;BME280;32503;47.748;8.960;2022-08-19T04:58:22;96506.88;;;20.92;76.23
3150;BME280;32503;47.748;8.960;2022-08-19T05:00:49;96504.13;;;20.92;76.23
3150;BME280;32503;47.748;8.960;2022-08-19T05:03:17;96510.81;;;20.91;76.46
3150;BME280;32503;47.748;8.960;2022-08-19T05:05:46;96514.00;;;20.89;76.24
3150;BME280;32503;47.748;8.960;2022-08-19T05:08:16;96505.84;;;20.86;76.20
3150;BME280;32503;47.748;8.960;2022-08-19T05:10:46;96511.34;;;20.86;76.61
3150;BME280;32503;47.748;8.960;2022-08-19T05:13:14;96515.31;;;20.85;76.70
3150;BME280;32503;47.748;8.960;2022-08-19T05:15:42;96520.63;;;20.92;76.25
3150;BME280;32503;47.748;8.960;2022-08-19T05:18:10;96527.13;;;21.14;75.65
3150;BME280;32503;47.748;8.960;2022-08-19T05:20:56;96518.91;;;21.27;74.95
3150;BME280;32503;47.748;8.960;2022-08-19T05:23:40;96526.44;;;21.39;74.45
3150;BME280;32503;47.748;8.960;2022-08-19T05:26:07;96524.63;;;21.49;73.96
3150;BME280;32503;47.748;8.960;2022-08-19T05:28:36;96524.44;;;21.56;73.60
3150;BME280;32503;47.748;8.960;2022-08-19T05:31:03;96531.19;;;21.68;73.07
3150;BME280;32503;47.748;8.960;2022-08-19T05:33:31;96531.78;;;21.76;72.62
3150;BME280;32503;47.748;8.960;2022-08-19T05:36:00;96541.03;;;21.82;72.25
3150;BME280;32503;47.748;8.960;2022-08-19T05:38:28;96543.13;;;21.91;71.91
3150;BME280;32503;47.748;8.960;2022-08-19T05:40:55;96548.88;;;21.96;71.52
3150;BME280;32503;47.748;8.960;2022-08-19T05:43:22;96548.00;;;22.00;71.33
3150;BME280;32503;47.748;8.960;2022-08-19T05:45:49;96546.22;;;22.06;71.00
3150;BME280;32503;47.748;8.960;2022-08-19T05:48:17;96546.59;;;22.08;71.15
3150;BME280;32503;47.748;8.960;2022-08-19T05:50:46;96546.22;;;22.06;70.97
3150;BME280;32503;47.748;8.960;2022-08-19T05:53:17;96552.63;;;22.03;71.21
3150;BME280;32503;47.748;8.960;2022-08-19T05:55:45;96548.31;;;22.02;71.13
3150;BME280;32503;47.748;8.960;2022-08-19T05:58:12;96542.06;;;22.01;71.00
3150;BME280;32503;47.748;8.960;2022-08-19T06:00:39;96545.13;;;22.03;70.90
3150;BME280;32503;47.748;8.960;2022-08-19T06:03:06;96543.69;;;21.99;71.07
3150;BME280;32503;47.748;8.960;2022-08-19T06:05:33;96541.84;;;21.95;70.96
3150;BME280;32503;47.748;8.960;2022-08-19T06:08:01;96539.94;;;21.92;71.07
3150;BME280;32503;47.748;8.960;2022-08-19T06:10:29;96536.88;;;21.90;71.36
3150;BME280;32503;47.748;8.960;2022-08-19T06:12:56;96542.38;;;21.90;71.19
3150;BME280;32503;47.748;8.960;2022-08-19T06:15:23;96537.84;;;21.84;71.52
3150;BME280;32503;47.748;8.960;2022-08-19T06:17:52;96537.06;;;21.83;71.64
3150;BME280;32503;47.748;8.960;2022-08-19T06:20:19;96536.97;;;21.87;71.34
3150;BME280;32503;47.748;8.960;2022-08-19T06:22:48;96531.47;;;21.87;71.34
3150;BME280;32503;47.748;8.960;2022-08-19T06:25:17;96531.34;;;21.90;71.15
3150;BME280;32503;47.748;8.960;2022-08-19T06:27:46;96538.50;;;21.88;71.22
3150;BME280;32503;47.748;8.960;2022-08-19T06:30:14;96544.31;;;21.90;71.10
3150;BME280;32503;47.748;8.960;2022-08-19T06:32:41;96547.88;;;21.90;71.18
3150;BME280;32503;47.748;8.960;2022-08-19T06:35:08;96548.75;;;21.87;71.25
3150;BME280;32503;47.748;8.960;2022-08-19T06:37:36;96547.38;;;21.79;71.41
3150;BME280;32503;47.748;8.960;2022-08-19T06:40:05;96542.19;;;21.68;71.88
3150;BME280;32503;47.748;8.960;2022-08-19T06:42:34;96549.66;;;21.55;72.33
3150;BME280;32503;47.748;8.960;2022-08-19T06:45:03;96545.09;;;21.48;72.67
3150;BME280;32503;47.748;8.960;2022-08-19T06:47:31;96542.94;;;21.39;73.27
3150;BME280;32503;47.748;8.960;2022-08-19T06:50:00;96543.81;;;21.36;73.32
3150;BME280;32503;47.748;8.960;2022-08-19T06:52:28;96551.47;;;21.29;74.07
3150;BME280;32503;47.748;8.960;2022-08-19T06:54:55;96552.78;;;21.24;74.13
3150;BME280;32503;47.748;8.960;2022-08-19T06:57:23;96547.88;;;21.15;74.44
3150;BME280;32503;47.748;8.960;2022-08-19T06:59:51;96551.16;;;21.10;74.82
3150;BME280;32503;47.748;8.960;2022-08-19T07:02:19;96541.56;;;21.02;75.01
3150;BME280;32503;47.748;8.960;2022-08-19T07:04:46;96549.81;;;21.02;75.19
3150;BME280;32503;47.748;8.960;2022-08-19T07:07:15;96552.13;;;21.04;75.15
3150;BME280;32503;47.748;8.960;2022-08-19T07:09:44;96553.22;;;21.06;75.02
3150;BME280;32503;47.748;8.960;2022-08-19T07:12:13;96553.22;;;21.06;75.12
3150;BME280;32503;47.748;8.960;2022-08-19T07:14:41;96547.06;;;21.02;75.06
3150;BME280;32503;47.748;8.960;2022-08-19T07:17:12;96551.75;;;21.01;75.13
3150;BME280;32503;47.748;8.960;2022-08-19T07:19:41;96556.84;;;21.03;75.07
3150;BME280;32503;47.748;8.960;2022-08-19T07:22:09;96548.44;;;20.94;75.35
3150;BME280;32503;47.748;8.960;2022-08-19T07:24:37;96560.97;;;20.95;75.51
3150;BME280;32503;47.748;8.960;2022-08-19T07:27:06;96569.22;;;20.95;75.58
3150;BME280;32503;47.748;8.960;2022-08-19T07:29:36;96563.34;;;20.93;75.72
3150;BME280;32503;47.748;8.960;2022-08-19T07:32:04;96557.88;;;20.93;75.49
3150;BME280;32503;47.748;8.960;2022-08-19T07:34:34;96561.41;;;20.93;75.72
3150;BME280;32503;47.748;8.960;2022-08-19T07:37:05;96572.41;;;20.93;75.93
3150;BME280;32503;47.748;8.960;2022-08-19T07:39:35;96566.81;;;20.97;75.92
3150;BME280;32503;47.748;8.960;2022-08-19T07:42:08;96569.56;;;20.97;75.62
3150;BME280;32503;47.748;8.960;2022-08-19T07:44:36;96575.06;;;20.97;75.81
3150;BME280;32503;47.748;8.960;2022-08-19T07:47:04;96570.41;;;20.94;76.14
3150;BME280;32503;47.748;8.960;2022-08-19T07:49:33;96571.25;;;20.91;76.08
3150;BME280;32503;47.748;8.960;2022-08-19T07:52:08;96578.31;;;20.92;76.03
3150;BME280;32503;47.748;8.960;2022-08-19T07:54:38;96572.31;;;20.97;75.94
3150;BME280;32503;47.748;8.960;2022-08-19T07:57:07;96576.16;;;20.99;75.95
3150;BME280;32503;47.748;8.960;2022-08-19T07:59:35;96574.72;;;20.95;76.08
3150;BME280;32503;47.748;8.960;2022-08-19T08:02:03;96582.97;;;20.95;75.89
3150;BME280;32503;47.748;8.960;2022-08-19T08:04:31;96576.41;;;20.89;76.36
3150;BME280;32503;47.748;8.960;2022-08-19T08:07:17;96583.03;;;20.91;76.41
3150;BME280;32503;47.748;8.960;2022-08-19T08:10:04;96581.50;;;20.90;76.44
3150;BME280;32503;47.748;8.960;2022-08-19T08:12:35;96584.25;;;20.90;76.31
3150;BME280;32503;47.748;8.960;2022-08-19T08:15:10;96585.84;;;20.88;76.73
3150;BME280;32503;47.748;8.960;2022-08-19T08:17:42;96591.34;;;20.88;76.51
3150;BME280;32503;47.748;8.960;2022-08-19T08:20:11;96593.66;;;20.89;76.52
3150;BME280;32503;47.748;8.960;2022-08-19T08:22:44;96598.81;;;20.87;76.52
3150;BME280;32503;47.748;8.960;2022-08-19T08:25:29;96592.56;;;20.87;76.24
3150;BME280;32503;47.748;8.960;2022-08-19T08:27:57;96602.00;;;20.86;76.31
3150;BME280;32503;47.748;8.960;2022-08-19T08:30:27;96617.22;;;20.90;76.11
3150;BME280;32503;47.748;8.960;2022-08-19T08:32:54;96608.19;;;20.90;76.05
3150;BME280;32503;47.748;8.960;2022-08-19T08:35:23;96606.97;;;20.91;76.01
3150;BME280;32503;47.748;8.960;2022-08-19T08:37:54;96612.06;;;20.92;76.05
3150;BME280;32503;47.748;8.960;2022-08-19T08:40:26;96618.22;;;20.96;75.76
3150;BME280;32503;47.748;8.960;2022-08-19T08:42:59;96611.63;;;20.94;75.56
3150;BME280;32503;47.748;8.960;2022-08-19T08:45:28;96617.47;;;20.96;75.55
3150;BME280;32503;47.748;8.960;2022-08-19T08:48:01;96620.22;;;20.96;75.65
3150;BME280;32503;47.748;8.960;2022-08-19T08:50:36;96619.03;;;20.97;75.69
3150;BME280;32503;47.748;8.960;2022-08-19T08:53:08;96630.00;;;20.97;75.66
3150;BME280;32503;47.748;8.960;2022-08-19T08:55:37;96632.41;;;20.95;75.81
3150;BME280;32503;47.748;8.960;2022-08-19T08:58:12;96630.50;;;21.08;75.96
3150;BME280;32503;47.748;8.960;2022-08-19T09:00:47;96636.38;;;21.27;75.52
3150;BME280;32503;47.748;8.960;2022-08-19T09:03:19;96626.38;;;21.33;75.18
3150;BME280;32503;47.748;8.960;2022-08-19T09:05:57;96640.38;;;21.38;74.64
3150;BME280;32503;47.748;8.960;2022-08-19T09:08:39;96648.97;;;21.40;74.41
3150;BME280;32503;47.748;8.960;2022-08-19T09:11:10;96647.19;;;21.50;74.28
3150;BME280;32503;47.748;8.960;2022-08-19T09:13:52;96643.06;;;21.58;73.48
3150;BME280;32503;47.748;8.960;2022-08-19T09:16:26;96635.13;;;21.61;73.60
3150;BME280;32503;47.748;8.960;2022-08-19T09:19:01;96646.66;;;21.55;73.70
3150;BME280;32503;47.748;8.960;2022-08-19T09:21:29;96644.00;;;21.52;73.88
3150;BME280;32503;47.748;8.960;2022-08-19T09:23:57;96648.19;;;21.56;73.80
3150;BME280;32503;47.748;8.960;2022-08-19T09:26:25;96653.34;;;21.54;73.55
3150;BME280;32503;47.748;8.960;2022-08-19T09:28:53;96651.50;;;21.51;73.62
3150;BME280;32503;47.748;8.960;2022-08-19T09:31:23;96648.03;;;21.47;73.30
3150;BME280;32503;47.748;8.960;2022-08-19T09:33:51;96654.25;;;21.51;73.37
3150;BME280;32503;47.748;8.960;2022-08-19T09:36:25;96651.72;;;21.57;73.31
3150;BME280;32503;47.748;8.960;2022-08-19T09:38:56;96645.38;;;21.60;73.29
3150;BME280;32503;47.748;8.960;2022-08-19T09:41:25;96656.19;;;21.67;72.79
3150;BME280;32503;47.748;8.960;2022-08-19T09:43:54;96647.16;;;21.67;72.61
3150;BME280;32503;47.748;8.960;2022-08-19T09:46:23;96654.63;;;21.66;72.49
3150;BME280;32503;47.748;8.960;2022-08-19T09:48:50;96668.38;;;21.66;72.50
3150;BME280;32503;47.748;8.960;2022-08-19T09:51:21;96654.97;;;21.68;72.35
3150;BME280;32503;47.748;8.960;2022-08-19T09:53:50;96656.09;;;21.71;71.94
3150;BME280;32503;47.748;8.960;2022-08-19T09:56:21;96671.38;;;21.72;72.35
3150;BME280;32503;47.748;8.960;2022-08-19T09:58:49;96676.47;;;21.73;72.13
3150;BME280;32503;47.748;8.960;2022-08-19T10:06:14;96682.19;;;21.79;72.02
3150;BME280;32503;47.748;8.960;2022-08-19T10:08:42;96683.09;;;21.76;72.21
3150;BME280;32503;47.748;8.960;2022-08-19T10:11:09;96688.91;;;21.78;72.17
3150;BME280;32503;47.748;8.960;2022-08-19T10:13:38;96681.88;;;21.77;72.29
3150;BME280;32503;47.748;8.960;2022-08-19T10:16:08;96684.38;;;21.71;72.35
3150;BME280;32503;47.748;8.960;2022-08-19T10:18:36;96684.81;;;21.70;72.60
3150;BME280;32503;47.748;8.960;2022-08-19T10:21:08;96685.66;;;21.67;72.90
3150;BME280;32503;47.748;8.960;2022-08-19T10:23:36;96684.22;;;21.62;72.94
3150;BME280;32503;47.748;8.960;2022-08-19T10:26:05;96691.34;;;21.59;73.16
3150;BME280;32503;47.748;8.960;2022-08-19T10:28:34;96694.94;;;21.56;73.30
3150;BME280;32503;47.748;8.960;2022-08-19T10:31:10;96684.94;;;21.50;73.43
3150;BME280;32503;47.748;8.960;2022-08-19T10:33:40;96697.03;;;21.52;73.49
3150;BME280;32503;47.748;8.960;2022-08-19T10:36:10;96693.59;;;21.48;73.79
3150;BME280;32503;47.748;8.960;2022-08-19T10:38:41;96699.53;;;21.47;73.74
3150;BME280;32503;47.748;8.960;2022-08-19T10:41:12;96703.75;;;21.51;73.75
3150;BME280;32503;47.748;8.960;2022-08-19T10:43:41;96707.34;;;21.48;73.86
3150;BME280;32503;47.748;8.960;2022-08-19T10:46:13;96701.50;;;21.46;73.93
3150;BME280;32503;47.748;8.960;2022-08-19T10:48:41;96698.03;;;21.42;74.24
3150;BME280;32503;47.748;8.960;2022-08-19T10:51:09;96703.88;;;21.44;73.88
3150;BME280;32503;47.748;8.960;2022-08-19T10:53:54;96704.94;;;21.50;73.61
3150;BME280;32503;47.748;8.960;2022-08-19T10:56:22;96707.69;;;21.50;73.65
3150;BME280;32503;47.748;8.960;2022-08-19T10:59:07;96715.94;;;21.50;73.53
3150;BME280;32503;47.748;8.960;2022-08-19T11:01:35;96717.13;;;21.49;73.59
3150;BME280;32503;47.748;8.960;2022-08-19T11:04:04;96712.00;;;21.51;73.57
3150;BME280;32503;47.748;8.960;2022-08-19T11:06:35;96712.84;;;21.48;73.66
3150;BME280;32503;47.748;8.960;2022-08-19T11:09:03;96714.19;;;21.40;74.07
3150;BME280;32503;47.748;8.960;2022-08-19T11:11:30;96719.00;;;21.36;74.16
3150;BME280;32503;47.748;8.960;2022-08-19T11:13:58;96713.50;;;21.36;74.18
3150;BME280;32503;47.748;8.960;2022-08-19T11:16:26;96719.69;;;21.40;74.29
3150;BME280;32503;47.748;8.960;2022-08-19T11:18:58;96712.56;;;21.43;74.29
3150;BME280;32503;47.748;8.960;2022-08-19T11:21:28;96708.09;;;21.32;74.46
3150;BME280;32503;47.748;8.960;2022-08-19T11:24:01;96712.84;;;21.32;74.69
3150;BME280;32503;47.748;8.960;2022-08-19T11:26:30;96717.88;;;21.33;74.70
3150;BME280;32503;47.748;8.960;2022-08-19T11:28:57;96722.78;;;21.26;74.99
3150;BME280;32503;47.748;8.960;2022-08-19T11:31:29;96719.34;;;21.21;74.95
3150;BME280;32503;47.748;8.960;2022-08-19T11:34:00;96717.34;;;21.06;75.76
3150;BME280;32503;47.748;8.960;2022-08-19T11:36:29;96714.94;;;21.08;75.80
3150;BME280;32503;47.748;8.960;2022-08-19T11:38:57;96721.22;;;21.08;75.89
3150;BME280;32503;47.748;8.960;2022-08-19T11:41:25;96716.94;;;21.07;76.03
3150;BME280;32503;47.748;8.960;2022-08-19T11:43:53;96720.88;;;21.06;76.27
3150;BME280;32503;47.748;8.960;2022-08-19T11:46:22;96710.38;;;21.01;75.98
3150;BME280;32503;47.748;8.960;2022-08-19T11:48:50;96728.94;;;21.13;75.64
3150;BME280;32503;47.748;8.960;2022-08-19T11:51:22;96726.88;;;21.17;75.45
3150;BME280;32503;47.748;8.960;2022-08-19T11:53:51;96737.44;;;21.19;75.44
3150;BME280;32503;47.748;8.960;2022-08-19T11:56:18;96728.63;;;21.28;75.08
3150;BME280;32503;47.748;8.960;2022-08-19T11:58:46;96727.16;;;21.39;74.76
3150;BME280;32503;47.748;8.960;2022-08-19T12:01:17;96736.47;;;21.46;74.41
3150;BME280;32503;47.748;8.960;2022-08-19T12:03:46;96736.75;;;21.51;74.14
3150;BME280;32503;47.748;8.960;2022-08-19T12:06:16;96732.91;;;21.45;74.07
3150;BME280;32503;47.748;8.960;2022-08-19T12:08:46;96728.34;;;21.38;73.94
3150;BME280;32503;47.748;8.960;2022-08-19T12:11:14;96724.66;;;21.45;74.22
3150;BME280;32503;47.748;8.960;2022-08-19T12:13:42;96724.00;;;21.41;74.26
3150;BME280;32503;47.748;8.960;2022-08-19T12:16:12;96726.91;;;21.34;74.29
3150;BME280;32503;47.748;8.960;2022-08-19T12:18:42;96726.13;;;21.33;74.48
3150;BME280;32503;47.748;8.960;2022-08-19T12:21:10;96727.34;;;21.32;74.47
3150;BME280;32503;47.748;8.960;2022-08-19T12:23:39;96728.44;;;21.35;74.35
3150;BME280;32503;47.748;8.960;2022-08-19T12:26:10;96737.91;;;21.34;74.26
3150;BME280;32503;47.748;8.960;2022-08-19T12:28:38;96730.19;;;21.29;74.23
3150;BME280;32503;47.748;8.960;2022-08-19T12:31:06;96727.09;;;21.27;74.74
3150;BME280;32503;47.748;8.960;2022-08-19T12:33:33;96729.31;;;21.32;74.51
3150;BME280;32503;47.748;8.960;2022-08-19T12:36:03;96725.00;;;21.31;74.62
3150;BME280;32503;47.748;8.960;2022-08-19T12:38:32;96725.88;;;21.28;74.87
3150;BME280;32503;47.748;8.960;2022-08-19T12:41:00;96725.59;;;21.22;75.24
3150;BME280;32503;47.748;8.960;2022-08-19T12:43:30;96733.59;;;21.16;75.37
3150;BME280;32503;47.748;8.960;2022-08-19T12:45:57;96739.44;;;21.18;75.34
3150;BME280;32503;47.748;8.960;2022-08-19T12:48:24;96729.28;;;21.15;75.63
3150;BME280;32503;47.748;8.960;2022-08-19T12:50:51;96733.59;;;21.16;75.53
3150;BME280;32503;47.748;8.960;2022-08-19T12:53:19;96726.03;;;21.04;76.33
3150;BME280;32503;47.748;8.960;2022-08-19T12:55:46;96734.25;;;21.04;76.19
3150;BME280;32503;47.748;8.960;2022-08-19T12:58:13;96736.25;;;21.04;76.43
3150;BME280;32503;47.748;8.960;2022-08-19T13:00:42;96733.13;;;21.01;76.41
3150;BME280;32503;47.748;8.960;2022-08-19T13:03:09;96735.09;;;21.01;76.30
3150;BME280;32503;47.748;8.960;2022-08-19T13:05:36;96736.16;;;21.07;76.31
3150;BME280;32503;47.748;8.960;2022-08-19T13:08:03;96747.06;;;21.11;76.50
3150;BME280;32503;47.748;8.960;2022-08-19T13:10:33;96736.94;;;21.08;76.40
3150;BME280;32503;47.748;8.960;2022-08-19T13:13:02;96745.25;;;21.04;76.55
3150;BME280;32503;47.748;8.960;2022-08-19T13:15:34;96746.44;;;21.03;76.75
3150;BME280;32503;47.748;8.960;2022-08-19T13:18:03;96744.19;;;20.98;76.60
3150;BME280;32503;47.748;8.960;2022-08-19T13:20:30;96752.78;;;21.00;76.39
3150;BME280;32503;47.748;8.960;2022-08-19T13:22:57;96748.44;;;21.02;76.56
3150;BME280;32503;47.748;8.960;2022-08-19T13:25:25;96745.69;;;21.02;76.47